Weather observations for the past three days for
Stafford, Stafford Regional Airport
Metric (Imperial)
Date Time (edt) Wind (kph) Vis. (km) Weather Sky Cond. Temperature (ºC) Relative Humidity Wind Chill (°C) Heat Index (°C) Pressure Precipitation (cm)
Air Dwpt 6 hour altimeter (cm) sea level (mb) 1 hr 3 hr 6 hr
Max. Min.
02 12:15 Calm 16.09 Fair CLR 33.1 21.5 51% 37 76.38 0.0
02 11:55 NE 6 16.09 Fair CLR 32.8 20.9 50% 36 76.38 0.0
02 11:35 Calm 16.09 Fair CLR 32.4 21.9 54% 36 76.38 0.0
02 11:15 E 7 16.09 Fair CLR 32.1 21.4 53% 35 76.4 0.0
02 10:55 SE 6 16.09 Fair CLR 31.5 21.7 56% 35 76.4 0.0
02 10:35 E 7 16.09 Fair CLR 30.9 21.8 58% 34 76.4 0.0
02 10:15 Calm 16.09 Fair CLR 30.1 22.1 62% 33 76.38 0.0
02 09:55 Calm 16.09 Fair CLR 29.5 22.4 66% 33 76.38 0.0
02 09:35 Calm 16.09 Fair CLR 28.8 22.6 69% 32 76.38 0.0
02 09:15 Calm 16.09 Fair CLR 28.1 22.4 71% 31 76.38 0.0
02 08:55 Calm 16.09 Fair CLR 27.4 22.3 74% 30 76.35 0.0
02 08:35 Calm 16.09 Fair CLR 26.6 21.6 74% 28 76.35 0.0
02 08:15 Calm 16.09 Fair CLR 26.1 21.9 78% 28 76.38 0.0
02 07:55 Calm 16.09 Fair CLR 24.7 21.6 26.9 23.2 83% 25 76.38 0.0
02 07:35 Calm 16.09 Fair CLR 23.7 21.4 87% 76.35 0.0
02 07:15 Calm 16.09 Fair CLR 23.3 21 87% 76.35 0.0
02 06:55 Calm 16.09 Fair CLR 23.2 21 88% 76.35 0.0
02 06:35 N 6 16.09 Fair CLR 23.7 21 85% 76.35 0.0
02 06:15 Calm 16.09 Fair CLR 24.6 20.9 80% 25 76.33 0.0
02 05:55 N 7 16.09 Fair CLR 24.7 20.9 79% 25 76.3 0.0
02 05:35 N 6 16.09 Fair CLR 24.7 21.2 81% 25 76.33 0.0
02 05:15 Calm 16.09 Fair CLR 25 20.5 76% 26 76.3 0.0
02 04:55 Calm 16.09 Fair CLR 24.7 21.1 80% 25 76.3 0.0
02 04:35 Calm 16.09 Fair CLR 24.8 20.5 77% 26 76.3 0.0
02 04:15 Calm 16.09 Fair CLR 24.5 21 81% 25 76.28 0.0
02 03:15 NW 6 16.09 Fair CLR 24.7 21.1 80% 25 76.28 0.0
02 02:55 Calm 16.09 Fair CLR 25 20.6 77% 26 76.3 0.0
02 02:35 Calm 16.09 Fair CLR 25.5 20.9 76% 27 76.28 0.0
01 20:55 Calm 16.09 Fair CLR 29.9 21.7 61% 33 76.12 0.0
01 20:35 Calm 16.09 Fair CLR 30.5 21.8 60% 34 76.1 0.0
01 20:15 Calm 16.09 Fair CLR 30.5 21.8 60% 34 76.1 0.0
01 19:55 Calm 16.09 Fair CLR 31.5 21.5 35.8 31.2 55% 35 76.1 0.0
01 19:35 Calm 16.09 Fair CLR 31.7 21.3 54% 35 76.07 0.0
01 19:15 SW 6 16.09 Fair CLR 32.5 21 51% 35 76.1 0.0
01 18:55 SW 6 16.09 Fair CLR 32.5 20.8 50% 35 76.1 0.0
01 18:35 SW 6 16.09 Fair CLR 33.6 21 48% 37 76.12 0.0
01 18:15 S 6 16.09 Fair CLR 33.7 20.5 46% 36 76.12 0.0
01 17:55 S 9 16.09 Fair CLR 33.8 20.6 46% 37 76.12 0.0
01 17:35 W 9 16.09 Fair CLR 34.9 20.4 43% 38 76.12 0.0
01 17:15 SW 13 16.09 Fair CLR 35 20.3 42% 38 76.12 0.0
01 16:55 W 7 16.09 Fair CLR 34.6 20.2 43% 37 76.15 0.0
01 16:35 SW 9 16.09 Fair CLR 35.1 20.3 42% 38 76.15 0.0
01 16:15 SW 11 16.09 Fair CLR 35.5 20.3 41% 38 76.17 0.0
01 15:55 S 7 16.09 Partly Cloudy SCT050 35.5 20.3 41% 38 76.17 0.0
01 15:35 SW 11 16.09 Partly Cloudy SCT055 35 20.7 43% 38 76.2 0.0
01 15:15 W 7 16.09 Partly Cloudy SCT050 SCT055 34.9 20.3 42% 38 76.23 0.0
01 14:55 W 6 16.09 Partly Cloudy SCT048 SCT060 34.7 20.7 44% 38 76.23 0.0
01 14:35 W 7 16.09 Mostly Cloudy BKN048 BKN050 35 20.9 44% 38 76.23 0.0
01 14:15 Calm 16.09 Fair CLR 35 20.7 43% 38 76.23 0.0
01 13:55 Calm 16.09 Partly Cloudy SCT048 34.3 20.9 34.8 24.7 45% 38 76.23 0.0
01 13:35 NW 7 16.09 Partly Cloudy SCT048 34.5 20.5 44% 37 76.25 0.0
01 12:55 Calm 16.09 Partly Cloudy SCT044 34.5 20.9 45% 38 76.25 0.0
01 12:35 Calm 16.09 Fair CLR 34.5 20.9 45% 38 76.25 0.0
01 12:15 W 6 16.09 Fair CLR 33.8 20.4 45% 37 76.28 0.0
01 11:55 Calm 16.09 Fair CLR 33.9 20.7 46% 37 76.3 0.0
01 11:35 S 7 16.09 Fair CLR 32.3 21.1 52% 35 76.3 0.0
01 11:15 W 6 16.09 Fair CLR 31.2 21 55% 34 76.33 0.0
01 10:55 Calm 16.09 Fair CLR 31 22 59% 35 76.33 0.0
01 10:35 Calm 16.09 Fair CLR 31.1 22 58% 35 76.33 0.0
01 10:15 W 6 16.09 Fair CLR 29.3 21.9 64% 32 76.33 0.0
01 09:55 Calm 16.09 Fair CLR 28.6 22.1 68% 32 76.33 0.0
01 09:35 Calm 16.09 Fair CLR 26.9 21.9 74% 29 76.35 0.0
01 09:15 Calm 16.09 Fair CLR 26.2 22.1 78% 28 76.35 0.0
01 08:55 Calm 16.09 Fair CLR 25.8 22.2 81% 27 76.38 0.0
01 08:35 Calm 16.09 Fair CLR 25.6 22.5 83% 27 76.35 0.0
01 08:15 Calm 16.09 Fair CLR 25 22.3 85% 26 76.35 0.0
01 07:55 Calm 16.09 Fair CLR 24.7 22.5 24.7 22.7 88% 25 76.33 0.0
01 07:35 Calm 11.27 Fair CLR 23.8 22.3 91% 76.33 0.0
01 06:15 Calm 8.05 Fog/Mist CLR 22.9 21.5 92% 76.3 0.0
01 05:55 Calm 4.83 Fog/Mist CLR 22.7 21.3 92% 76.3 0.0
01 04:55 Calm 11.27 Fair CLR 23 21.6 92% 76.3 0.0
01 02:15 Calm 16.09 Fair CLR 24.4 22.4 89% 24 76.35 0.0
01 01:55 Calm 11.27 Fair CLR 24 22.2 28 23.2 90% 24 76.38 0.0
01 01:35 Calm 11.27 Fair CLR 23.8 22.1 90% 76.38 0.0
01 01:15 Calm 16.09 Fair CLR 23.9 22 89% 23 76.38 0.0
01 00:55 Calm 11.27 Fair CLR 23.9 22 89% 23 76.4 0.0
01 00:35 Calm 16.09 Fair CLR 24.1 22.5 91% 24 76.43 0.0
01 00:15 Calm 11.27 Partly Cloudy SCT100 23.7 22 90% 76.43 0.0
31 23:55 Calm 16.09 Partly Cloudy SCT100 23.7 21.8 89% 76.43 0.0
31 23:35 Calm 16.09 Fair CLR 23.9 22 89% 23 76.4 0.0
31 23:15 Calm 11.27 Fair CLR 24 22.1 89% 24 76.4 0.0
31 22:55 Calm 16.09 Fair CLR 24.1 22 88% 24 76.4 0.0
31 22:35 Calm 16.09 Fair CLR 24.6 22.3 87% 25 76.4 0.0
31 22:15 Calm 16.09 Fair CLR 25.2 22 83% 26 76.4 0.0
31 21:55 Calm 16.09 Partly Cloudy SCT120 25.5 22.5 84% 27 76.4 0.0
31 21:35 Calm 16.09 Overcast OVC110 26.6 22.6 79% 29 76.38 0.0
31 21:15 Calm 16.09 Mostly Cloudy BKN110 26.9 22.2 76% 29 76.38 0.0
31 20:55 Calm 16.09 Fair CLR 27.2 22.2 74% 30 76.38 0.0
31 20:35 Calm 16.09 Fair CLR 27.6 22.3 73% 30 76.38 0.0
31 16:15 NE 7 16.09 Fair CLR 31 21.4 57% 34 76.4 0.0
31 15:55 NE 7 16.09 Fair CLR 31 21.3 56% 34 76.4 0.0
31 15:35 NE 7 16.09 Fair CLR 30.5 21.4 58% 33 76.4 0.0
31 15:15 E 7 16.09 Fair CLR 30.4 21.4 59% 33 76.43 0.0
31 14:55 N 6 16.09 Partly Cloudy SCT042 30.4 21.4 59% 33 76.43 0.0
31 14:35 Calm 16.09 Partly Cloudy SCT037 31.9 21 52% 35 76.43 0.0
31 14:15 NE 6 16.09 Partly Cloudy SCT037 31.5 20.8 53% 34 76.43 0.0
31 13:55 Calm 16.09 Partly Cloudy SCT034 SCT042 32.5 20.8 32.5 22.5 50% 35 76.45 0.0
31 13:35 NE 9 16.09 Mostly Cloudy BKN034 BKN041 31.6 20.9 53% 34 76.45 0.0
31 13:15 SE 6 16.09 Mostly Cloudy BKN034 BKN041 30.7 20.7 55% 33 76.48 0.0
31 12:55 Calm 16.09 Partly Cloudy SCT032 SCT039 32.2 21.6 54% 36 76.48 0.0
31 12:35 NE 7 16.09 Partly Cloudy SCT029 30.5 21.3 58% 33 76.5 0.0
31 12:15 N 7 16.09 Partly Cloudy SCT027 30.4 21.6 59% 33 76.5 0.0
31 11:55 Calm 16.09 Fair CLR 29.8 21.3 60% 33 76.5 0.0
31 11:35 Calm 16.09 Fair CLR 29.6 21.5 62% 32 76.5 0.0
31 11:15 NE 7 16.09 Fair CLR 28.8 21.1 63% 31 76.5 0.0
31 10:55 N 9 16.09 Fair CLR 28.6 21.4 65% 31 76.5 0.0
31 09:15 N 6 16.09 Fair CLR 26.1 21.1 74% 28 76.5 0.0
31 08:55 Calm 16.09 Fair CLR 25.2 21.3 79% 26 76.5 0.0
31 08:35 Calm 16.09 Fair CLR 24.2 21.5 85% 24 76.5 0.0
31 07:55 NW 6 16.09 Fair CLR 22.3 20.9 22.3 20.3 92% 76.48 0.0
31 07:35 Calm 16.09 Fair CLR 21.3 20.1 93% 76.48 0.0
31 07:15 Calm 8.05 Fog/Mist CLR 20.7 19.6 93% 76.45 0.0
31 06:55 Calm 16.09 Fair CLR 20.7 19.5 93% 76.45 0.0
31 05:55 Calm 11.27 Fair CLR 20.6 19.4 93% 76.4 0.0
31 05:35 Calm 11.27 Fair CLR 20.4 19.2 93% 76.43 0.0
31 05:15 Calm 11.27 Fair CLR 20.5 19.2 92% 76.4 0.0
31 04:55 Calm 11.27 Fair CLR 20.8 19.5 92% 76.4 0.0
31 04:35 Calm 11.27 Fair CLR 20.8 19.5 92% 76.4 0.0
31 04:15 Calm 16.09 Fair CLR 20.8 19.5 92% 76.4 0.0
31 03:55 Calm 16.09 Fair CLR 20.8 19.5 92% 76.4 0.0
31 03:35 Calm 16.09 Fair CLR 21 19.5 91% 76.4 0.0
31 03:15 Calm 16.09 Fair CLR 21.4 20 92% 76.38 0.0
31 02:55 Calm 16.09 Fair CLR 21.5 20 91% 76.38 0.0
31 01:35 Calm 16.09 Fair CLR 21.7 20 90% 76.43 0.0
31 01:15 Calm 16.09 Fair CLR 21.8 20.2 91% 76.45 0.0
31 00:55 N 6 16.09 Fair CLR 21.8 20 90% 76.45 0.0
31 00:35 Calm 16.09 Partly Cloudy SCT120 22.7 20.5 87% 76.43 0.0
31 00:15 Calm 16.09 Mostly Cloudy BKN120 22.9 20.5 86% 76.43 0.0
30 23:55 Calm 16.09 Overcast OVC110 23.7 20.6 83% 76.45 0.0
30 23:35 Calm 16.09 Overcast OVC090 23.5 20.8 85% 76.45 0.0
30 23:15 Calm 16.09 Overcast OVC090 23.1 20.5 85% 76.48 0.0
30 22:55 Calm 16.09 Overcast SCT060 SCT075 OVC090 23.6 20.5 83% 76.5 0.0
30 22:35 W 6 16.09 Partly Cloudy SCT060 22.8 20.3 86% 76.5 0.0
30 22:15 Calm 16.09 Fair CLR 23.1 20.4 85% 76.5 0.0
30 21:55 Calm 16.09 Partly Cloudy SCT100 23.5 20.2 82% 76.48 0.0
30 21:35 Calm 16.09 Partly Cloudy SCT100 23.5 20.4 83% 76.48 0.0
30 21:15 NW 6 16.09 Partly Cloudy SCT100 23.6 20.5 83% 76.5 0.0
30 20:55 Calm 16.09 Partly Cloudy SCT080 23.7 20.2 81% 76.48 0.0
30 20:35 Calm 16.09 Partly Cloudy SCT080 SCT120 23.8 20 79% 76.48 0.0
30 19:55 NW 6 16.09 Overcast SCT060 OVC095 23.7 19.8 32.5 23.7 79% 76.45 0.0
30 19:35 S 9 G 15 16.09 Light Rain OVC095 23.7 19.7 78% 76.4 0.0
30 19:15 W 20 G 31 16.09 Light Rain SCT044 SCT050 OVC085 26 19.5 67% 27 76.48 0.0
30 18:35 S 6 16.09 Overcast OVC100 28.8 19.9 59% 31 76.43 0.0
30 18:15 S 6 16.09 Mostly Cloudy BKN100 28.6 20 60% 30 76.43 0.0
30 17:55 SW 7 16.09 Partly Cloudy SCT100 29.2 19.5 56% 31 76.43 0.0
30 15:55 S 9 16.09 Partly Cloudy SCT040 31.9 19.4 48% 34 76.43 0.0
Date Time (edt) Wind (kph) Vis. (km) Weather Sky Cond. Air Dwpt Max. Min. Relative Humidity Wind Chill (°C) Heat Index (°C) altimeter (cm) sea level (mb) 1 hr 3 hr 6 hr
6 hour
Temperature (ºC) Pressure Precipitation (cm)